sensor_id;sensor_type;location;lat;lon;timestamp;pressure;altitude;pressure_sealevel;temperature;humidity
24752;BME280;27246;52.376;4.628;2023-04-25T00:01:12;101012.94;;;8.00;63.57
24752;BME280;27246;52.376;4.628;2023-04-25T00:06:14;101015.03;;;8.15;61.48
24752;BME280;27246;52.376;4.628;2023-04-25T00:11:16;101018.28;;;8.10;60.92
24752;BME280;27246;52.376;4.628;2023-04-25T00:16:18;101018.63;;;8.07;60.66
24752;BME280;27246;52.376;4.628;2023-04-25T00:21:20;101021.00;;;8.02;60.66
24752;BME280;27246;52.376;4.628;2023-04-25T00:26:22;101022.31;;;7.90;61.44
24752;BME280;27246;52.376;4.628;2023-04-25T00:31:26;101027.19;;;8.04;61.42
24752;BME280;27246;52.376;4.628;2023-04-25T00:36:27;101028.41;;;7.75;62.40
24752;BME280;27246;52.376;4.628;2023-04-25T00:41:29;101026.09;;;7.89;63.05
24752;BME280;27246;52.376;4.628;2023-04-25T00:46:32;101032.59;;;7.88;63.09
24752;BME280;27246;52.376;4.628;2023-04-25T00:51:34;101032.09;;;7.92;60.96
24752;BME280;27246;52.376;4.628;2023-04-25T00:56:36;101030.03;;;7.94;60.61
24752;BME280;27246;52.376;4.628;2023-04-25T01:01:38;101027.25;;;7.86;60.39
24752;BME280;27246;52.376;4.628;2023-04-25T01:06:40;101026.56;;;7.84;61.08
24752;BME280;27246;52.376;4.628;2023-04-25T01:11:44;101046.56;;;7.76;61.07
24752;BME280;27246;52.376;4.628;2023-04-25T01:16:45;101035.44;;;7.78;60.69
24752;BME280;27246;52.376;4.628;2023-04-25T01:21:48;101036.63;;;7.75;60.70
24752;BME280;27246;52.376;4.628;2023-04-25T01:26:50;101037.16;;;7.79;60.76
24752;BME280;27246;52.376;4.628;2023-04-25T01:31:57;101040.97;;;7.86;60.03
24752;BME280;27246;52.376;4.628;2023-04-25T01:37:00;101060.28;;;7.76;59.61
24752;BME280;27246;52.376;4.628;2023-04-25T01:42:05;101055.19;;;7.81;60.30
24752;BME280;27246;52.376;4.628;2023-04-25T01:47:06;101046.44;;;7.86;60.80
24752;BME280;27246;52.376;4.628;2023-04-25T01:52:08;101052.97;;;7.85;62.10
24752;BME280;27246;52.376;4.628;2023-04-25T01:57:11;101055.06;;;7.91;62.12
24752;BME280;27246;52.376;4.628;2023-04-25T02:02:15;101068.50;;;7.76;61.50
24752;BME280;27246;52.376;4.628;2023-04-25T02:07:17;101072.28;;;7.75;60.95
24752;BME280;27246;52.376;4.628;2023-04-25T02:12:27;101072.25;;;8.28;64.12
24752;BME280;27246;52.376;4.628;2023-04-25T02:17:53;101080.38;;;8.11;64.20
24752;BME280;27246;52.376;4.628;2023-04-25T02:22:56;101079.66;;;7.75;64.69
24752;BME280;27246;52.376;4.628;2023-04-25T02:27:57;101086.13;;;7.74;63.31
24752;BME280;27246;52.376;4.628;2023-04-25T02:32:59;101087.56;;;7.60;62.71
24752;BME280;27246;52.376;4.628;2023-04-25T02:38:01;101091.34;;;7.59;62.94
24752;BME280;27246;52.376;4.628;2023-04-25T02:43:02;101093.47;;;7.47;62.57
24752;BME280;27246;52.376;4.628;2023-04-25T02:48:04;101093.41;;;7.57;62.54
24752;BME280;27246;52.376;4.628;2023-04-25T02:53:06;101082.44;;;7.57;62.06
24752;BME280;27246;52.376;4.628;2023-04-25T02:58:14;101083.78;;;7.53;62.59
24752;BME280;27246;52.376;4.628;2023-04-25T03:03:20;101081.94;;;7.61;62.40
24752;BME280;27246;52.376;4.628;2023-04-25T03:08:24;101088.97;;;7.64;62.54
24752;BME280;27246;52.376;4.628;2023-04-25T03:13:27;101101.53;;;7.67;62.81
24752;BME280;27246;52.376;4.628;2023-04-25T03:18:32;101089.94;;;7.55;62.78
24752;BME280;27246;52.376;4.628;2023-04-25T03:23:33;101096.28;;;7.55;62.00
24752;BME280;27246;52.376;4.628;2023-04-25T03:28:35;101115.31;;;7.75;62.57
24752;BME280;27246;52.376;4.628;2023-04-25T03:33:37;101115.44;;;7.73;63.70
24752;BME280;27246;52.376;4.628;2023-04-25T03:38:40;101117.50;;;8.58;64.47
24752;BME280;27246;52.376;4.628;2023-04-25T03:43:48;101113.53;;;7.92;64.47
24752;BME280;27246;52.376;4.628;2023-04-25T03:48:51;101111.88;;;7.55;66.67
24752;BME280;27246;52.376;4.628;2023-04-25T03:53:57;101115.53;;;7.28;67.04
24752;BME280;27246;52.376;4.628;2023-04-25T03:59:05;101120.09;;;7.19;66.57
24752;BME280;27246;52.376;4.628;2023-04-25T04:04:08;101118.66;;;7.15;66.01
24752;BME280;27246;52.376;4.628;2023-04-25T04:09:10;101126.97;;;7.23;65.00
24752;BME280;27246;52.376;4.628;2023-04-25T04:14:17;101128.22;;;7.29;63.69
24752;BME280;27246;52.376;4.628;2023-04-25T04:19:20;101126.19;;;7.31;62.20
24752;BME280;27246;52.376;4.628;2023-04-25T04:24:32;101127.00;;;7.41;61.42
24752;BME280;27246;52.376;4.628;2023-04-25T04:29:38;101134.13;;;7.52;61.37
24752;BME280;27246;52.376;4.628;2023-04-25T04:34:55;101126.28;;;7.57;61.65
24752;BME280;27246;52.376;4.628;2023-04-25T04:39:58;101134.66;;;7.55;61.27
24752;BME280;27246;52.376;4.628;2023-04-25T04:45:17;101144.78;;;7.55;62.35
24752;BME280;27246;52.376;4.628;2023-04-25T04:50:58;101149.00;;;7.67;62.56
24752;BME280;27246;52.376;4.628;2023-04-25T04:56:24;101156.81;;;7.62;61.58
24752;BME280;27246;52.376;4.628;2023-04-25T05:01:26;101160.50;;;7.71;61.68
24752;BME280;27246;52.376;4.628;2023-04-25T05:06:38;101174.38;;;7.69;58.37
24752;BME280;27246;52.376;4.628;2023-04-25T05:11:54;101175.69;;;7.83;58.95
24752;BME280;27246;52.376;4.628;2023-04-25T05:17:18;101188.16;;;7.77;58.51
24752;BME280;27246;52.376;4.628;2023-04-25T05:22:49;101180.22;;;7.92;59.15
24752;BME280;27246;52.376;4.628;2023-04-25T05:28:12;101186.88;;;7.90;58.68
24752;BME280;27246;52.376;4.628;2023-04-25T05:33:15;101194.31;;;7.97;57.33
24752;BME280;27246;52.376;4.628;2023-04-25T05:38:18;101202.81;;;8.12;57.04
24752;BME280;27246;52.376;4.628;2023-04-25T05:43:45;101210.22;;;8.38;56.37
24752;BME280;27246;52.376;4.628;2023-04-25T05:49:15;101212.81;;;7.95;56.45
24752;BME280;27246;52.376;4.628;2023-04-25T05:54:42;101222.59;;;7.98;56.65
24752;BME280;27246;52.376;4.628;2023-04-25T05:59:44;101221.66;;;8.07;56.89
24752;BME280;27246;52.376;4.628;2023-04-25T06:04:50;101230.81;;;8.16;57.51
24752;BME280;27246;52.376;4.628;2023-04-25T06:09:52;101238.75;;;8.19;55.98
24752;BME280;27246;52.376;4.628;2023-04-25T06:14:54;101243.31;;;8.36;55.97
24752;BME280;27246;52.376;4.628;2023-04-25T06:19:56;101254.66;;;8.94;57.19
24752;BME280;27246;52.376;4.628;2023-04-25T06:24:59;101270.06;;;8.60;55.32
24752;BME280;27246;52.376;4.628;2023-04-25T06:30:02;101275.41;;;8.18;53.22
24752;BME280;27246;52.376;4.628;2023-04-25T06:35:07;101280.78;;;8.01;53.72
24752;BME280;27246;52.376;4.628;2023-04-25T06:40:09;101273.53;;;7.82;54.20
24752;BME280;27246;52.376;4.628;2023-04-25T06:45:15;101277.69;;;8.05;53.73
24752;BME280;27246;52.376;4.628;2023-04-25T06:50:17;101277.88;;;8.03;53.49
24752;BME280;27246;52.376;4.628;2023-04-25T06:55:19;101284.34;;;8.38;53.86
24752;BME280;27246;52.376;4.628;2023-04-25T07:00:50;101297.78;;;8.75;52.73
24752;BME280;27246;52.376;4.628;2023-04-25T07:05:54;101305.25;;;9.17;54.26
24752;BME280;27246;52.376;4.628;2023-04-25T07:10:57;101298.31;;;9.05;54.32
24752;BME280;27246;52.376;4.628;2023-04-25T07:15:59;101305.00;;;9.02;53.81
24752;BME280;27246;52.376;4.628;2023-04-25T07:21:04;101307.09;;;9.09;51.18
24752;BME280;27246;52.376;4.628;2023-04-25T07:26:08;101310.94;;;9.50;53.14
24752;BME280;27246;52.376;4.628;2023-04-25T07:31:13;101319.00;;;8.91;56.07
24752;BME280;27246;52.376;4.628;2023-04-25T07:36:15;101324.94;;;9.05;57.59
24752;BME280;27246;52.376;4.628;2023-04-25T07:41:18;101326.19;;;9.36;58.96
24752;BME280;27246;52.376;4.628;2023-04-25T07:46:20;101332.00;;;9.33;55.48
24752;BME280;27246;52.376;4.628;2023-04-25T07:51:22;101343.31;;;9.65;54.60
24752;BME280;27246;52.376;4.628;2023-04-25T07:56:28;101345.28;;;9.97;50.94
24752;BME280;27246;52.376;4.628;2023-04-25T08:01:46;101358.34;;;9.87;50.15
24752;BME280;27246;52.376;4.628;2023-04-25T08:06:49;101355.34;;;9.72;49.86
24752;BME280;27246;52.376;4.628;2023-04-25T08:11:56;101364.22;;;10.08;49.29
24752;BME280;27246;52.376;4.628;2023-04-25T08:17:03;101362.38;;;10.25;48.84
24752;BME280;27246;52.376;4.628;2023-04-25T08:22:06;101381.84;;;10.56;57.56
24752;BME280;27246;52.376;4.628;2023-04-25T08:27:20;101398.53;;;10.63;53.61
24752;BME280;27246;52.376;4.628;2023-04-25T08:32:22;101415.25;;;10.53;51.17
24752;BME280;27246;52.376;4.628;2023-04-25T08:37:45;101438.31;;;10.77;54.90
24752;BME280;27246;52.376;4.628;2023-04-25T08:42:50;101476.47;;;9.54;55.40
24752;BME280;27246;52.376;4.628;2023-04-25T08:47:52;101455.19;;;8.68;62.33
24752;BME280;27246;52.376;4.628;2023-04-25T08:52:58;101443.22;;;8.41;63.24
24752;BME280;27246;52.376;4.628;2023-04-25T08:58:04;101449.28;;;8.80;64.16
24752;BME280;27246;52.376;4.628;2023-04-25T09:03:07;101455.88;;;9.14;64.34
24752;BME280;27246;52.376;4.628;2023-04-25T09:08:09;101456.69;;;9.50;60.62
24752;BME280;27246;52.376;4.628;2023-04-25T09:13:14;101469.19;;;10.13;57.16
24752;BME280;27246;52.376;4.628;2023-04-25T09:18:48;101461.75;;;10.81;54.93
24752;BME280;27246;52.376;4.628;2023-04-25T09:23:52;101468.69;;;11.18;52.55
24752;BME280;27246;52.376;4.628;2023-04-25T09:29:05;101474.88;;;11.12;50.46
24752;BME280;27246;52.376;4.628;2023-04-25T09:34:14;101479.69;;;11.34;50.61
24752;BME280;27246;52.376;4.628;2023-04-25T09:39:28;101483.47;;;11.41;51.10
24752;BME280;27246;52.376;4.628;2023-04-25T09:44:42;101487.78;;;11.19;50.94
24752;BME280;27246;52.376;4.628;2023-04-25T09:49:47;101488.16;;;11.16;54.51
24752;BME280;27246;52.376;4.628;2023-04-25T09:54:49;101508.94;;;10.70;53.77
24752;BME280;27246;52.376;4.628;2023-04-25T10:00:00;101509.09;;;10.60;54.95
24752;BME280;27246;52.376;4.628;2023-04-25T10:05:15;101507.47;;;10.92;54.08
24752;BME280;27246;52.376;4.628;2023-04-25T10:10:17;101503.47;;;11.35;51.11
24752;BME280;27246;52.376;4.628;2023-04-25T10:15:21;101501.00;;;11.73;47.72
24752;BME280;27246;52.376;4.628;2023-04-25T10:20:23;101511.88;;;11.75;48.43
24752;BME280;27246;52.376;4.628;2023-04-25T10:25:26;101510.97;;;11.91;46.72
24752;BME280;27246;52.376;4.628;2023-04-25T10:30:27;101513.88;;;11.97;45.91
24752;BME280;27246;52.376;4.628;2023-04-25T10:35:29;101530.38;;;12.14;47.08
24752;BME280;27246;52.376;4.628;2023-04-25T10:40:32;101537.19;;;11.78;49.03
24752;BME280;27246;52.376;4.628;2023-04-25T10:45:51;101548.81;;;11.16;49.50
24752;BME280;27246;52.376;4.628;2023-04-25T10:51:08;101547.22;;;11.71;45.03
24752;BME280;27246;52.376;4.628;2023-04-25T10:56:17;101538.44;;;11.59;48.39
24752;BME280;27246;52.376;4.628;2023-04-25T11:01:21;101543.97;;;12.32;46.25
24752;BME280;27246;52.376;4.628;2023-04-25T11:12:11;101538.06;;;12.35;50.35
24752;BME280;27246;52.376;4.628;2023-04-25T11:17:17;101547.94;;;12.37;45.99
24752;BME280;27246;52.376;4.628;2023-04-25T11:22:20;101551.13;;;12.57;44.04
24752;BME280;27246;52.376;4.628;2023-04-25T11:27:22;101556.53;;;12.43;47.30
24752;BME280;27246;52.376;4.628;2023-04-25T11:32:26;101569.25;;;12.04;49.31
24752;BME280;27246;52.376;4.628;2023-04-25T11:37:28;101581.31;;;12.59;46.30
24752;BME280;27246;52.376;4.628;2023-04-25T11:42:30;101583.41;;;12.01;49.24
24752;BME280;27246;52.376;4.628;2023-04-25T11:47:32;101577.25;;;11.25;49.35
24752;BME280;27246;52.376;4.628;2023-04-25T11:52:56;101577.25;;;11.33;44.73
24752;BME280;27246;52.376;4.628;2023-04-25T11:57:59;101583.50;;;12.32;42.40
24752;BME280;27246;52.376;4.628;2023-04-25T12:03:01;101581.34;;;12.90;41.52
24752;BME280;27246;52.376;4.628;2023-04-25T12:08:16;101579.50;;;13.29;42.48
24752;BME280;27246;52.376;4.628;2023-04-25T12:13:20;101587.50;;;13.47;40.37
24752;BME280;27246;52.376;4.628;2023-04-25T12:18:25;101597.16;;;13.05;41.85
24752;BME280;27246;52.376;4.628;2023-04-25T12:23:29;101592.78;;;13.33;41.49
24752;BME280;27246;52.376;4.628;2023-04-25T12:28:32;101598.13;;;13.35;44.01
24752;BME280;27246;52.376;4.628;2023-04-25T12:33:36;101600.91;;;13.58;44.09
24752;BME280;27246;52.376;4.628;2023-04-25T12:38:40;101601.69;;;13.44;42.13
24752;BME280;27246;52.376;4.628;2023-04-25T12:43:41;101604.03;;;13.32;40.46
24752;BME280;27246;52.376;4.628;2023-04-25T12:48:46;101609.84;;;12.91;41.86
24752;BME280;27246;52.376;4.628;2023-04-25T12:53:49;101613.66;;;12.90;43.78
24752;BME280;27246;52.376;4.628;2023-04-25T12:58:52;101609.88;;;12.51;44.50
24752;BME280;27246;52.376;4.628;2023-04-25T13:03:54;101629.66;;;13.03;44.35
24752;BME280;27246;52.376;4.628;2023-04-25T13:08:56;101623.28;;;13.25;43.82
24752;BME280;27246;52.376;4.628;2023-04-25T13:13:57;101618.13;;;13.45;45.04
24752;BME280;27246;52.376;4.628;2023-04-25T13:18:59;101627.03;;;13.55;43.07
24752;BME280;27246;52.376;4.628;2023-04-25T13:24:01;101639.31;;;13.30;39.57
24752;BME280;27246;52.376;4.628;2023-04-25T13:29:02;101627.78;;;13.49;39.10
24752;BME280;27246;52.376;4.628;2023-04-25T13:34:05;101637.25;;;13.55;37.97
24752;BME280;27246;52.376;4.628;2023-04-25T13:39:06;101636.50;;;13.15;39.43
24752;BME280;27246;52.376;4.628;2023-04-25T13:44:09;101625.44;;;12.84;42.62
24752;BME280;27246;52.376;4.628;2023-04-25T13:49:12;101648.50;;;13.30;44.41
24752;BME280;27246;52.376;4.628;2023-04-25T13:54:14;101643.75;;;12.85;41.94
24752;BME280;27246;52.376;4.628;2023-04-25T13:59:16;101645.69;;;13.62;42.34
24752;BME280;27246;52.376;4.628;2023-04-25T14:04:18;101640.56;;;13.58;43.42
24752;BME280;27246;52.376;4.628;2023-04-25T14:09:20;101645.22;;;13.58;42.55
24752;BME280;27246;52.376;4.628;2023-04-25T14:14:27;101659.47;;;13.47;41.21
24752;BME280;27246;52.376;4.628;2023-04-25T14:19:29;101649.66;;;13.67;42.95
24752;BME280;27246;52.376;4.628;2023-04-25T14:24:30;101654.84;;;13.16;42.13
24752;BME280;27246;52.376;4.628;2023-04-25T14:29:32;101670.94;;;12.73;47.08
24752;BME280;27246;52.376;4.628;2023-04-25T14:34:34;101683.03;;;12.72;50.63
24752;BME280;27246;52.376;4.628;2023-04-25T14:39:36;101679.88;;;11.53;53.25
24752;BME280;27246;52.376;4.628;2023-04-25T14:44:38;101679.69;;;12.20;51.73
24752;BME280;27246;52.376;4.628;2023-04-25T14:49:40;101673.63;;;12.42;47.34
24752;BME280;27246;52.376;4.628;2023-04-25T14:54:45;101666.75;;;12.37;47.98
24752;BME280;27246;52.376;4.628;2023-04-25T14:59:47;101666.50;;;12.95;48.78
24752;BME280;27246;52.376;4.628;2023-04-25T15:04:49;101666.09;;;12.75;46.43
24752;BME280;27246;52.376;4.628;2023-04-25T15:09:51;101668.41;;;13.26;44.62
24752;BME280;27246;52.376;4.628;2023-04-25T15:14:54;101670.16;;;12.87;42.17
24752;BME280;27246;52.376;4.628;2023-04-25T15:19:57;101672.03;;;12.55;43.03
24752;BME280;27246;52.376;4.628;2023-04-25T15:24:58;101671.47;;;12.68;42.78
24752;BME280;27246;52.376;4.628;2023-04-25T15:30:00;101669.06;;;12.57;42.75
24752;BME280;27246;52.376;4.628;2023-04-25T15:35:03;101680.34;;;12.55;42.11
24752;BME280;27246;52.376;4.628;2023-04-25T15:40:11;101678.94;;;12.59;41.99
24752;BME280;27246;52.376;4.628;2023-04-25T15:45:14;101676.16;;;12.68;41.60
24752;BME280;27246;52.376;4.628;2023-04-25T15:50:18;101667.78;;;12.20;40.54
24752;BME280;27246;52.376;4.628;2023-04-25T15:55:20;101692.13;;;12.08;43.89
24752;BME280;27246;52.376;4.628;2023-04-25T16:00:22;101683.50;;;11.62;43.62
24752;BME280;27246;52.376;4.628;2023-04-25T16:05:24;101691.63;;;11.88;44.08
24752;BME280;27246;52.376;4.628;2023-04-25T16:10:26;101692.13;;;12.00;44.49
24752;BME280;27246;52.376;4.628;2023-04-25T16:15:28;101701.63;;;11.73;45.12
24752;BME280;27246;52.376;4.628;2023-04-25T16:20:29;101708.34;;;11.62;43.67
24752;BME280;27246;52.376;4.628;2023-04-25T16:25:31;101706.44;;;11.54;45.69
24752;BME280;27246;52.376;4.628;2023-04-25T16:30:33;101723.91;;;11.12;46.65
24752;BME280;27246;52.376;4.628;2023-04-25T16:35:34;101717.00;;;11.08;46.45
24752;BME280;27246;52.376;4.628;2023-04-25T16:40:37;101720.78;;;11.07;46.87
24752;BME280;27246;52.376;4.628;2023-04-25T16:45:38;101736.59;;;10.71;48.33
24752;BME280;27246;52.376;4.628;2023-04-25T16:50:40;101733.06;;;10.52;49.61
24752;BME280;27246;52.376;4.628;2023-04-25T16:55:42;101734.72;;;10.45;49.67
24752;BME280;27246;52.376;4.628;2023-04-25T17:00:45;101737.44;;;10.37;50.70
24752;BME280;27246;52.376;4.628;2023-04-25T17:05:49;101739.75;;;10.76;49.98
24752;BME280;27246;52.376;4.628;2023-04-25T17:10:51;101727.28;;;10.90;49.45
24752;BME280;27246;52.376;4.628;2023-04-25T17:15:53;101726.19;;;11.25;48.24
24752;BME280;27246;52.376;4.628;2023-04-25T17:20:55;101746.06;;;10.94;46.72
24752;BME280;27246;52.376;4.628;2023-04-25T17:25:57;101741.53;;;10.59;47.80
24752;BME280;27246;52.376;4.628;2023-04-25T17:30:59;101738.06;;;10.57;47.93
24752;BME280;27246;52.376;4.628;2023-04-25T17:36:01;101737.47;;;10.45;45.59
24752;BME280;27246;52.376;4.628;2023-04-25T17:41:04;101749.59;;;10.26;45.76
24752;BME280;27246;52.376;4.628;2023-04-25T17:46:06;101746.72;;;9.92;45.66
24752;BME280;27246;52.376;4.628;2023-04-25T17:51:08;101748.78;;;9.72;47.65
24752;BME280;27246;52.376;4.628;2023-04-25T17:56:10;101753.78;;;9.40;48.67
24752;BME280;27246;52.376;4.628;2023-04-25T18:01:27;101754.41;;;9.70;49.55
24752;BME280;27246;52.376;4.628;2023-04-25T18:06:29;101747.34;;;9.50;51.21
24752;BME280;27246;52.376;4.628;2023-04-25T18:11:31;101754.59;;;9.51;52.96
24752;BME280;27246;52.376;4.628;2023-04-25T18:16:32;101746.97;;;9.63;51.93
24752;BME280;27246;52.376;4.628;2023-04-25T18:21:37;101751.47;;;9.36;53.90
24752;BME280;27246;52.376;4.628;2023-04-25T18:26:39;101759.75;;;9.54;53.72
24752;BME280;27246;52.376;4.628;2023-04-25T18:31:41;101763.31;;;9.64;53.57
24752;BME280;27246;52.376;4.628;2023-04-25T18:36:44;101774.72;;;9.14;57.01
24752;BME280;27246;52.376;4.628;2023-04-25T18:41:45;101762.06;;;9.03;59.24
24752;BME280;27246;52.376;4.628;2023-04-25T18:46:58;101775.34;;;9.08;59.47
24752;BME280;27246;52.376;4.628;2023-04-25T18:52:01;101773.63;;;9.07;59.59
24752;BME280;27246;52.376;4.628;2023-04-25T18:57:04;101764.91;;;9.11;60.77
24752;BME280;27246;52.376;4.628;2023-04-25T19:02:07;101769.38;;;8.85;60.01
24752;BME280;27246;52.376;4.628;2023-04-25T19:07:09;101774.13;;;8.92;60.26
24752;BME280;27246;52.376;4.628;2023-04-25T19:12:11;101773.41;;;8.90;60.23
24752;BME280;27246;52.376;4.628;2023-04-25T19:17:14;101779.38;;;9.13;59.70
24752;BME280;27246;52.376;4.628;2023-04-25T19:22:16;101783.41;;;9.19;59.81
24752;BME280;27246;52.376;4.628;2023-04-25T19:27:18;101785.00;;;9.12;58.14
24752;BME280;27246;52.376;4.628;2023-04-25T19:32:20;101790.97;;;9.07;56.88
24752;BME280;27246;52.376;4.628;2023-04-25T19:37:21;101785.94;;;9.02;55.54
24752;BME280;27246;52.376;4.628;2023-04-25T19:42:23;101789.59;;;8.93;54.57
24752;BME280;27246;52.376;4.628;2023-04-25T19:47:25;101793.75;;;8.97;54.39
24752;BME280;27246;52.376;4.628;2023-04-25T19:52:28;101794.81;;;8.87;53.55
24752;BME280;27246;52.376;4.628;2023-04-25T19:57:33;101799.75;;;8.83;52.86
24752;BME280;27246;52.376;4.628;2023-04-25T20:02:35;101806.66;;;8.87;52.10
24752;BME280;27246;52.376;4.628;2023-04-25T20:07:37;101812.38;;;8.76;51.86
24752;BME280;27246;52.376;4.628;2023-04-25T20:12:39;101803.22;;;8.85;51.95
24752;BME280;27246;52.376;4.628;2023-04-25T20:17:44;101801.91;;;8.79;51.76
24752;BME280;27246;52.376;4.628;2023-04-25T20:22:48;101811.66;;;8.74;52.53
24752;BME280;27246;52.376;4.628;2023-04-25T20:27:51;101805.03;;;8.57;52.41
24752;BME280;27246;52.376;4.628;2023-04-25T20:32:53;101813.69;;;8.72;51.85
24752;BME280;27246;52.376;4.628;2023-04-25T20:37:54;101815.97;;;8.76;52.66
24752;BME280;27246;52.376;4.628;2023-04-25T20:42:56;101817.16;;;8.64;52.54
24752;BME280;27246;52.376;4.628;2023-04-25T20:47:58;101814.69;;;8.71;52.62
24752;BME280;27246;52.376;4.628;2023-04-25T20:53:00;101801.69;;;8.63;52.42
24752;BME280;27246;52.376;4.628;2023-04-25T20:58:04;101809.66;;;8.56;51.63
24752;BME280;27246;52.376;4.628;2023-04-25T21:03:07;101801.72;;;8.53;52.81
24752;BME280;27246;52.376;4.628;2023-04-25T21:08:09;101806.66;;;8.50;53.28
24752;BME280;27246;52.376;4.628;2023-04-25T21:13:11;101813.31;;;8.28;53.05
24752;BME280;27246;52.376;4.628;2023-04-25T21:18:16;101798.16;;;8.33;51.71
24752;BME280;27246;52.376;4.628;2023-04-25T21:23:19;101806.22;;;8.35;51.36
24752;BME280;27246;52.376;4.628;2023-04-25T21:28:21;101803.78;;;8.32;52.13
24752;BME280;27246;52.376;4.628;2023-04-25T21:33:24;101808.28;;;8.23;51.77
24752;BME280;27246;52.376;4.628;2023-04-25T21:38:25;101808.84;;;8.27;52.14
24752;BME280;27246;52.376;4.628;2023-04-25T21:43:27;101806.41;;;8.24;52.57
24752;BME280;27246;52.376;4.628;2023-04-25T21:48:29;101808.41;;;8.21;53.62
24752;BME280;27246;52.376;4.628;2023-04-25T21:53:31;101815.63;;;8.23;53.35
24752;BME280;27246;52.376;4.628;2023-04-25T21:58:32;101816.22;;;8.26;54.22
24752;BME280;27246;52.376;4.628;2023-04-25T22:03:34;101825.31;;;8.27;54.67
24752;BME280;27246;52.376;4.628;2023-04-25T22:08:36;101833.53;;;8.27;55.25
24752;BME280;27246;52.376;4.628;2023-04-25T22:13:37;101829.94;;;8.26;55.78
24752;BME280;27246;52.376;4.628;2023-04-25T22:18:40;101838.63;;;8.21;56.12
24752;BME280;27246;52.376;4.628;2023-04-25T22:23:45;101835.41;;;8.16;56.61
24752;BME280;27246;52.376;4.628;2023-04-25T22:28:46;101837.75;;;8.11;56.73
24752;BME280;27246;52.376;4.628;2023-04-25T22:33:48;101835.13;;;8.10;57.23
24752;BME280;27246;52.376;4.628;2023-04-25T22:38:50;101839.19;;;8.06;57.29
24752;BME280;27246;52.376;4.628;2023-04-25T22:43:53;101846.69;;;8.04;56.66
24752;BME280;27246;52.376;4.628;2023-04-25T22:48:55;101850.44;;;7.93;57.49
24752;BME280;27246;52.376;4.628;2023-04-25T22:53:57;101849.44;;;7.94;57.09
24752;BME280;27246;52.376;4.628;2023-04-25T22:58:59;101834.84;;;8.03;57.54
24752;BME280;27246;52.376;4.628;2023-04-25T23:04:03;101838.31;;;7.95;57.69
24752;BME280;27246;52.376;4.628;2023-04-25T23:09:05;101837.47;;;7.95;58.37
24752;BME280;27246;52.376;4.628;2023-04-25T23:14:08;101841.66;;;7.99;59.04
24752;BME280;27246;52.376;4.628;2023-04-25T23:19:10;101839.59;;;7.81;60.61
24752;BME280;27246;52.376;4.628;2023-04-25T23:24:13;101833.97;;;7.83;61.99
24752;BME280;27246;52.376;4.628;2023-04-25T23:29:15;101841.63;;;7.89;63.65
24752;BME280;27246;52.376;4.628;2023-04-25T23:34:17;101839.16;;;7.86;63.36
24752;BME280;27246;52.376;4.628;2023-04-25T23:39:19;101834.41;;;7.88;62.78
24752;BME280;27246;52.376;4.628;2023-04-25T23:44:21;101840.31;;;7.84;64.12
24752;BME280;27246;52.376;4.628;2023-04-25T23:49:22;101828.50;;;7.83;64.68
24752;BME280;27246;52.376;4.628;2023-04-25T23:54:24;101829.47;;;7.72;63.86
24752;BME280;27246;52.376;4.628;2023-04-25T23:59:27;101835.13;;;7.71;63.78
